createdAt,value
2022-09-05T00:00:11.931Z,1020.94
2022-09-05T00:05:17.357Z,1020.92
2022-09-05T00:10:24.619Z,1021.13
2022-09-05T00:15:31.821Z,1020.96
2022-09-05T00:24:22.579Z,1021.02
2022-09-05T00:25:46.382Z,1021.20
2022-09-05T00:31:07.768Z,1021.14
2022-09-05T00:36:01.086Z,1021.13
2022-09-05T00:41:07.927Z,1021.07
2022-09-05T00:46:15.200Z,1021.07
2022-09-05T00:51:28.546Z,1021.09
2022-09-05T00:56:29.557Z,1021.06
2022-09-05T01:01:36.861Z,1021.10
2022-09-05T01:06:43.943Z,1021.19
2022-09-05T01:11:51.228Z,1021.21
2022-09-05T01:16:58.401Z,1021.18
2022-09-05T01:22:05.577Z,1021.07
2022-09-05T01:27:12.766Z,1021.02
2022-09-05T01:32:19.963Z,1021.07
2022-09-05T01:37:33.457Z,1021.05
2022-09-05T01:42:34.332Z,1021.11
2022-09-05T01:47:41.511Z,1021.09
2022-09-05T01:52:57.603Z,1021.04
2022-09-05T01:57:55.897Z,1021.07
2022-09-05T02:03:03.244Z,1021.05
2022-09-05T02:08:10.250Z,1021.00
2022-09-05T02:13:17.435Z,1021.00
2022-09-05T02:18:24.611Z,1021.01
2022-09-05T02:23:42.016Z,1021.04
2022-09-05T02:28:39.080Z,1020.97
2022-09-05T02:33:46.283Z,1020.90
2022-09-05T02:42:43.516Z,1020.92
2022-09-05T02:45:08.708Z,1020.90
2022-09-05T02:49:38.166Z,1020.81
2022-09-05T02:57:38.988Z,1020.91
2022-09-05T02:59:30.945Z,1020.80
2022-09-05T03:04:29.480Z,1020.71
2022-09-05T03:09:36.678Z,1020.71
2022-09-05T03:14:43.858Z,1020.76
2022-09-05T03:19:51.046Z,1020.70
2022-09-05T03:24:58.263Z,1020.70
2022-09-05T03:30:05.438Z,1020.65
2022-09-05T03:35:12.608Z,1020.65
2022-09-05T03:40:19.828Z,1020.65
2022-09-05T03:45:36.366Z,1020.64
2022-09-05T03:53:45.282Z,1020.62
2022-09-05T03:57:24.719Z,1020.69
2022-09-05T04:00:48.620Z,1020.70
2022-09-05T04:08:19.250Z,1020.64
2022-09-05T04:11:03.087Z,1020.70
2022-09-05T04:16:10.375Z,1020.73
2022-09-05T04:21:17.469Z,1020.69
2022-09-05T04:26:24.649Z,1020.72
2022-09-05T04:31:31.866Z,1020.77
2022-09-05T04:36:39.028Z,1020.84
2022-09-05T04:41:46.211Z,1020.86
2022-09-05T04:46:53.548Z,1020.86
2022-09-05T04:52:01.085Z,1020.92
2022-09-05T04:57:14.347Z,1020.90
2022-09-05T05:05:59.700Z,1020.91
2022-09-05T05:07:22.375Z,1020.91
2022-09-05T05:17:57.398Z,1020.95
2022-09-05T05:18:06.379Z,1021.01
2022-09-05T05:22:43.796Z,1021.03
2022-09-05T05:27:50.979Z,1021.04
2022-09-05T05:32:58.155Z,1021.14
2022-09-05T05:38:05.357Z,1021.23
2022-09-05T05:43:12.542Z,1021.25
2022-09-05T05:48:19.744Z,1021.30
2022-09-05T05:53:31.985Z,1021.34
2022-09-05T05:58:34.098Z,1021.46
2022-09-05T06:03:41.481Z,1021.48
2022-09-05T06:10:19.743Z,1021.47
2022-09-05T06:15:05.773Z,1021.59
2022-09-05T06:19:02.935Z,1021.73
2022-09-05T06:24:10.137Z,1021.83
2022-09-05T06:29:17.399Z,1021.85
2022-09-05T06:34:33.556Z,1021.95
2022-09-05T06:39:31.830Z,1021.93
2022-09-05T06:44:38.956Z,1021.95
2022-09-05T06:49:46.344Z,1021.87
2022-09-05T06:55:00.021Z,1021.93
2022-09-05T07:00:01.131Z,1021.94
2022-09-05T07:05:37.236Z,1021.95
2022-09-05T07:10:37.342Z,1021.98
2022-09-05T07:15:22.678Z,1021.99
2022-09-05T07:20:29.842Z,1022.01
2022-09-05T07:25:37.570Z,1022.03
2022-09-05T07:30:44.231Z,1021.98
2022-09-05T07:35:51.434Z,1021.94
2022-09-05T07:40:58.600Z,1021.94
2022-09-05T07:46:05.857Z,1021.99
2022-09-05T07:56:49.493Z,1022.00
2022-09-05T07:57:05.031Z,1021.96
2022-09-05T08:01:27.383Z,1021.99
2022-09-05T08:07:24.252Z,1022.04
2022-09-05T08:11:41.705Z,1022.02
2022-09-05T08:16:49.093Z,1021.96
2022-09-05T08:21:56.191Z,1021.94
2022-09-05T08:27:03.371Z,1022.01
2022-09-05T08:32:10.572Z,1021.97
2022-09-05T08:37:21.296Z,1021.99
2022-09-05T08:42:25.031Z,1022.02
2022-09-05T08:47:43.350Z,1021.93
2022-09-05T08:52:39.498Z,1022.01
2022-09-05T08:57:46.691Z,1021.95
2022-09-05T09:02:53.944Z,1022.00
2022-09-05T09:08:01.028Z,1021.93
2022-09-05T09:13:08.233Z,1021.95
2022-09-05T09:18:15.439Z,1021.86
2022-09-05T09:23:31.807Z,1021.83
2022-09-05T09:28:47.351Z,1021.90
2022-09-05T09:33:37.066Z,1021.84
2022-09-05T09:38:44.255Z,1021.85
2022-09-05T09:43:53.003Z,1021.86
2022-09-05T09:48:58.633Z,1021.86
2022-09-05T09:54:05.803Z,1021.82
2022-09-05T09:59:12.959Z,1021.84
2022-09-05T10:07:46.146Z,1021.82
2022-09-05T10:10:53.746Z,1021.77
2022-09-05T10:14:49.035Z,1021.74
2022-09-05T10:20:12.066Z,1021.71
2022-09-05T10:24:49.237Z,1021.68
2022-09-05T10:29:56.457Z,1021.67
2022-09-05T10:35:21.350Z,1021.69
2022-09-05T10:40:11.074Z,1021.67
2022-09-05T10:45:18.152Z,1021.51
2022-09-05T10:50:25.394Z,1021.38
2022-09-05T10:55:32.597Z,1021.42
2022-09-05T11:02:21.359Z,1021.34
2022-09-05T11:05:47.137Z,1021.36
2022-09-05T11:10:54.357Z,1021.34
2022-09-05T11:16:04.837Z,1021.21
2022-09-05T11:21:09.057Z,1021.20
2022-09-05T11:26:16.256Z,1021.22
2022-09-05T11:31:23.543Z,1021.21
2022-09-05T11:40:06.079Z,1021.17
2022-09-05T11:41:37.873Z,1021.07
2022-09-05T11:46:45.051Z,1021.04
2022-09-05T11:51:52.282Z,1021.09
2022-09-05T11:57:07.796Z,1021.06
2022-09-05T12:02:17.039Z,1021.03
2022-09-05T12:07:27.065Z,1020.98
2022-09-05T12:12:39.018Z,1020.97
2022-09-05T12:17:34.850Z,1020.91
2022-09-05T12:22:35.702Z,1020.85
2022-09-05T12:27:46.364Z,1020.84
2022-09-05T12:35:50.057Z,1020.82
2022-09-05T12:40:59.299Z,1020.81
2022-09-05T12:43:46.293Z,1020.71
2022-09-05T12:48:11.737Z,1020.66
2022-09-05T12:53:18.914Z,1020.52
2022-09-05T13:02:57.875Z,1020.45
2022-09-05T13:03:33.695Z,1020.44
2022-09-05T13:08:40.456Z,1020.40
2022-09-05T13:14:53.082Z,1020.34
2022-09-05T13:18:54.803Z,1020.26
2022-09-05T13:24:02.021Z,1020.22
2022-09-05T13:29:10.700Z,1020.14
2022-09-05T13:38:06.613Z,1020.09
2022-09-05T13:39:23.715Z,1020.02
2022-09-05T13:44:30.840Z,1020.06
2022-09-05T13:49:38.022Z,1019.95
2022-09-05T13:54:50.246Z,1019.88
2022-09-05T13:59:52.617Z,1019.85
2022-09-05T14:05:11.083Z,1019.77
2022-09-05T14:10:07.124Z,1019.71
2022-09-05T14:15:14.673Z,1019.67
2022-09-05T14:20:21.636Z,1019.64
2022-09-05T14:25:28.843Z,1019.60
2022-09-05T14:32:16.861Z,1019.52
2022-09-05T14:37:39.200Z,1019.45
2022-09-05T14:40:50.957Z,1019.39
2022-09-05T14:46:02.363Z,1019.34
2022-09-05T14:51:05.245Z,1019.36
2022-09-05T14:57:34.299Z,1019.31
2022-09-05T15:02:52.382Z,1019.24
2022-09-05T15:06:30.127Z,1019.25
2022-09-05T15:12:28.047Z,1019.18
2022-09-05T15:16:41.517Z,1019.22
2022-09-05T15:21:48.708Z,1019.17
2022-09-05T15:26:55.955Z,1019.16
2022-09-05T15:32:09.562Z,1019.20
2022-09-05T15:37:22.163Z,1019.15
2022-09-05T15:42:17.489Z,1019.07
2022-09-05T15:47:24.741Z,1019.03
2022-09-05T15:52:31.985Z,1018.94
2022-09-05T15:57:39.137Z,1019.02
2022-09-05T16:02:46.595Z,1019.02
2022-09-05T16:10:42.218Z,1018.99
2022-09-05T16:13:00.816Z,1019.00
2022-09-05T16:23:17.262Z,1018.94
2022-09-05T16:23:39.311Z,1018.97
2022-09-05T16:28:23.023Z,1018.93
2022-09-05T16:33:30.322Z,1018.93
2022-09-05T16:38:50.047Z,1018.91
2022-09-05T16:43:44.782Z,1018.81
2022-09-05T16:48:54.960Z,1018.77
2022-09-05T16:53:59.617Z,1018.66
2022-09-05T16:59:06.394Z,1018.70
2022-09-05T17:04:15.917Z,1018.66
2022-09-05T17:09:20.771Z,1018.64
2022-09-05T17:14:27.912Z,1018.64
2022-09-05T17:19:41.957Z,1018.65
2022-09-05T17:29:19.845Z,1018.69
2022-09-05T17:31:26.593Z,1018.68
2022-09-05T17:35:17.469Z,1018.73
2022-09-05T17:40:07.158Z,1018.77
2022-09-05T17:45:14.378Z,1018.80
2022-09-05T17:50:21.547Z,1018.75
2022-09-05T17:55:28.836Z,1018.80
2022-09-05T18:00:36.065Z,1018.84
2022-09-05T18:05:43.211Z,1018.80
2022-09-05T18:10:50.635Z,1018.85
2022-09-05T18:15:58.028Z,1018.90
2022-09-05T18:21:21.555Z,1018.96
2022-09-05T18:26:12.593Z,1019.06
2022-09-05T18:31:20.255Z,1019.09
2022-09-05T18:36:27.795Z,1019.12
2022-09-05T18:41:38.787Z,1019.16
2022-09-05T18:46:43.109Z,1019.22
2022-09-05T18:51:50.622Z,1019.22
2022-09-05T18:57:19.918Z,1019.21
2022-09-05T19:02:06.201Z,1019.23
2022-09-05T19:07:13.566Z,1019.21
2022-09-05T19:12:32.165Z,1019.23
2022-09-05T19:17:28.757Z,1019.24
2022-09-05T19:23:08.302Z,1019.21
2022-09-05T19:33:14.303Z,1019.20
2022-09-05T19:36:57.052Z,1019.12
2022-09-05T19:37:59.595Z,1019.16
2022-09-05T19:47:35.188Z,1019.06
2022-09-05T19:48:14.164Z,1019.02
2022-09-05T19:53:21.139Z,1019.09
2022-09-05T19:58:28.615Z,1019.04
2022-09-05T20:03:39.512Z,1019.05
2022-09-05T20:08:43.183Z,1019.02
2022-09-05T20:13:50.378Z,1019.01
2022-09-05T20:18:57.525Z,1019.12
2022-09-05T20:24:04.928Z,1019.21
2022-09-05T20:29:12.120Z,1019.13
2022-09-05T20:35:06.334Z,1019.06
2022-09-05T20:43:26.645Z,1019.07
2022-09-05T20:44:33.785Z,1019.07
2022-09-05T20:54:16.806Z,1019.14
2022-09-05T20:54:48.485Z,1019.23
2022-09-05T20:59:55.307Z,1019.25
2022-09-05T21:05:19.818Z,1019.23
2022-09-05T21:10:09.778Z,1019.13
2022-09-05T21:15:52.055Z,1019.15
2022-09-05T21:20:24.376Z,1019.23
2022-09-05T21:25:44.202Z,1019.18
2022-09-05T21:30:38.837Z,1019.13
2022-09-05T21:35:46.036Z,1019.21
2022-09-05T21:40:53.215Z,1019.22
2022-09-05T21:47:38.388Z,1019.22
2022-09-05T21:51:07.679Z,1019.15
2022-09-05T21:59:33.301Z,1019.03
2022-09-05T22:01:44.872Z,1019.05
2022-09-05T22:06:29.292Z,1019.08
2022-09-05T22:11:36.538Z,1019.08
2022-09-05T22:16:44.879Z,1019.02
2022-09-05T22:21:50.995Z,1019.00
2022-09-05T22:27:12.646Z,1018.96
2022-09-05T22:32:05.564Z,1018.83
2022-09-05T22:37:12.748Z,1018.97
2022-09-05T22:42:19.933Z,1019.02
2022-09-05T22:47:27.120Z,1019.04
2022-09-05T22:52:34.298Z,1019.02
2022-09-05T22:57:41.496Z,1019.03
2022-09-05T23:02:52.468Z,1019.04
2022-09-05T23:07:55.956Z,1018.76
2022-09-05T23:13:03.133Z,1018.83
2022-09-05T23:18:10.327Z,1019.03
2022-09-05T23:23:17.542Z,1018.85
2022-09-05T23:28:24.901Z,1018.80
2022-09-05T23:33:32.086Z,1018.81
2022-09-05T23:38:39.245Z,1018.90
2022-09-05T23:43:46.445Z,1018.80
2022-09-05T23:48:53.589Z,1018.84
2022-09-05T23:54:00.826Z,1018.82
2022-09-05T23:59:08.017Z,1018.82
